createdAt,value
2019-06-01T00:00:50.080Z,0.00
2019-06-01T00:01:50.114Z,0.00
2019-06-01T00:03:03.291Z,0.00
2019-06-01T00:03:50.175Z,0.00
2019-06-01T00:04:50.212Z,0.00
2019-06-01T00:05:50.243Z,0.00
2019-06-01T00:06:50.274Z,0.00
2019-06-01T00:07:50.306Z,0.00
2019-06-01T00:08:50.338Z,0.00
2019-06-01T00:13:50.501Z,0.00
2019-06-01T00:14:50.532Z,0.00
2019-06-01T00:15:50.565Z,0.00
2019-06-01T00:16:50.597Z,0.00
2019-06-01T00:17:50.646Z,0.00
2019-06-01T00:18:50.667Z,0.00
2019-06-01T00:21:54.344Z,0.00
2019-06-01T00:25:52.840Z,0.00
2019-06-01T00:26:52.100Z,0.00
2019-06-01T00:27:52.817Z,0.00
2019-06-01T00:29:51.017Z,0.00
2019-06-01T00:30:52.062Z,0.00
2019-06-01T00:31:52.131Z,0.00
2019-06-01T00:32:51.413Z,0.00
2019-06-01T00:33:51.727Z,0.00
2019-06-01T00:34:51.876Z,0.00
2019-06-01T00:35:51.613Z,0.00
2019-06-01T00:36:51.938Z,0.00
2019-06-01T00:37:51.776Z,0.00
2019-06-01T00:38:52.066Z,0.00
2019-06-01T00:40:52.128Z,0.00
2019-06-01T00:48:25.737Z,0.00
2019-06-01T00:50:27.319Z,0.00
2019-06-01T00:57:26.937Z,0.00
2019-06-01T00:58:26.391Z,0.00
2019-06-01T01:00:42.519Z,0.00
2019-06-01T01:02:28.235Z,0.00
2019-06-01T01:03:26.446Z,0.00
2019-06-01T01:04:26.479Z,0.00
2019-06-01T01:05:26.310Z,0.00
2019-06-01T01:08:27.209Z,0.00
2019-06-01T01:12:28.428Z,0.00
2019-06-01T01:16:28.274Z,0.00
2019-06-01T01:21:27.728Z,0.00
2019-06-01T01:22:27.252Z,0.00
2019-06-01T01:23:27.287Z,0.00
2019-06-01T01:24:27.315Z,0.00
2019-06-01T01:29:28.159Z,0.00
2019-06-01T01:34:27.944Z,0.00
2019-06-01T01:46:34.388Z,0.00
2019-06-01T01:48:27.984Z,0.00
2019-06-01T01:50:28.248Z,0.00
2019-06-01T01:51:28.078Z,0.00
2019-06-01T01:53:27.835Z,0.00
2019-06-01T01:55:27.901Z,0.00
2019-06-01T01:56:27.935Z,0.00
2019-06-01T01:57:27.937Z,0.00
2019-06-01T02:04:29.593Z,0.00
2019-06-01T02:05:28.191Z,0.00
2019-06-01T02:06:29.260Z,0.00
2019-06-01T02:07:28.254Z,0.00
2019-06-01T02:08:28.286Z,0.00
2019-06-01T02:09:28.320Z,0.00
2019-06-01T02:10:28.349Z,0.00
2019-06-01T02:11:28.386Z,0.00
2019-06-01T02:12:28.414Z,0.00
2019-06-01T02:13:30.369Z,0.00
2019-06-01T02:15:29.244Z,0.00
2019-06-01T02:20:29.604Z,0.00
2019-06-01T02:21:29.033Z,0.00
2019-06-01T02:24:28.797Z,0.00
2019-06-01T02:26:29.693Z,0.00
2019-06-01T02:28:29.655Z,0.00
2019-06-01T02:29:28.979Z,0.00
2019-06-01T02:30:32.650Z,0.00
2019-06-01T02:32:29.280Z,0.00
2019-06-01T02:33:29.102Z,0.00
2019-06-01T02:34:29.140Z,0.00
2019-06-01T02:35:29.772Z,0.00
2019-06-01T02:39:29.297Z,0.00
2019-06-01T02:40:29.351Z,0.00
2019-06-01T02:42:24.529Z,0.00
2019-06-01T02:43:21.937Z,0.00
2019-06-01T02:44:21.967Z,0.00
2019-06-01T02:45:21.999Z,0.00
2019-06-01T02:46:22.030Z,0.00
2019-06-01T02:47:22.061Z,0.00
2019-06-01T02:48:22.093Z,0.00
2019-06-01T02:49:25.556Z,0.00
2019-06-01T02:50:22.154Z,0.00
2019-06-01T02:51:22.186Z,0.00
2019-06-01T02:52:22.219Z,0.00
2019-06-01T02:53:22.261Z,0.00
2019-06-01T02:54:22.282Z,0.00
2019-06-01T02:55:22.314Z,0.00
2019-06-01T02:56:22.346Z,4.00
2019-06-01T02:57:22.377Z,4.00
2019-06-01T02:58:22.411Z,4.00
2019-06-01T02:59:22.440Z,0.00
2019-06-01T03:00:22.470Z,4.00
2019-06-01T03:01:22.505Z,4.00
2019-06-01T03:02:22.536Z,8.00
2019-06-01T03:03:22.564Z,4.00
2019-06-01T03:04:22.922Z,8.00
2019-06-01T03:05:22.628Z,8.00
2019-06-01T03:06:22.661Z,8.00
2019-06-01T03:07:22.690Z,12.00
2019-06-01T03:08:22.723Z,12.00
2019-06-01T03:09:22.753Z,16.00
2019-06-01T03:10:22.807Z,16.00
2019-06-01T03:11:22.838Z,20.00
2019-06-01T03:12:23.076Z,24.00
2019-06-01T03:13:22.904Z,24.00
2019-06-01T03:14:22.931Z,28.00
2019-06-01T03:15:23.164Z,32.00
2019-06-01T03:17:23.005Z,44.00
2019-06-01T03:18:23.035Z,52.00
2019-06-01T03:19:23.066Z,60.00
2019-06-01T03:20:23.099Z,64.00
2019-06-01T03:21:23.130Z,80.00
2019-06-01T03:22:23.160Z,88.00
2019-06-01T03:23:23.191Z,100.00
2019-06-01T03:24:23.222Z,108.00
2019-06-01T03:25:23.256Z,124.00
2019-06-01T03:26:23.310Z,136.00
2019-06-01T03:27:23.318Z,156.00
2019-06-01T03:28:23.349Z,172.00
2019-06-01T03:29:23.382Z,192.00
2019-06-01T03:30:23.412Z,208.00
2019-06-01T03:31:23.466Z,228.00
2019-06-01T03:32:35.014Z,252.00
2019-06-01T03:33:23.526Z,280.00
2019-06-01T03:34:23.536Z,308.00
2019-06-01T03:35:23.567Z,336.00
2019-06-01T03:36:23.599Z,364.00
2019-06-01T03:37:23.857Z,396.00
2019-06-01T03:38:23.661Z,424.00
2019-06-01T03:40:24.178Z,484.00
2019-06-01T03:41:23.758Z,520.00
2019-06-01T03:42:23.787Z,556.00
2019-06-01T03:43:24.020Z,588.00
2019-06-01T03:44:23.850Z,624.00
2019-06-01T03:46:23.912Z,700.00
2019-06-01T03:47:23.944Z,736.00
2019-06-01T03:48:23.976Z,772.00
2019-06-01T03:49:24.007Z,812.00
2019-06-01T03:50:24.037Z,852.00
2019-06-01T03:51:24.070Z,884.00
2019-06-01T03:52:24.110Z,920.00
2019-06-01T03:53:24.140Z,960.00
2019-06-01T03:54:24.163Z,1000.00
2019-06-01T03:55:24.194Z,1040.00
2019-06-01T03:56:24.227Z,1080.00
2019-06-01T03:57:24.259Z,1120.00
2019-06-01T03:58:24.288Z,1160.00
2019-06-01T03:59:24.320Z,1204.00
2019-06-01T04:00:24.353Z,1244.00
2019-06-01T04:01:24.383Z,1284.00
2019-06-01T04:02:32.900Z,1324.00
2019-06-01T04:03:24.446Z,1364.00
2019-06-01T04:05:24.508Z,1440.00
2019-06-01T04:06:24.538Z,1476.00
2019-06-01T04:08:24.806Z,1552.00
2019-06-01T04:09:24.637Z,1584.00
2019-06-01T04:10:24.665Z,1624.00
2019-06-01T04:11:24.698Z,1656.00
2019-06-01T04:12:24.730Z,1692.00
2019-06-01T04:13:24.763Z,1728.00
2019-06-01T04:14:24.791Z,1764.00
2019-06-01T04:15:24.823Z,1824.00
2019-06-01T04:16:24.861Z,1900.00
2019-06-01T04:17:24.887Z,1992.00
2019-06-01T04:18:24.915Z,2068.00
2019-06-01T04:19:24.954Z,2128.00
2019-06-01T04:20:24.980Z,2168.00
2019-06-01T04:21:25.015Z,2204.00
2019-06-01T04:22:25.052Z,2244.00
2019-06-01T04:23:25.076Z,2276.00
2019-06-01T04:24:25.107Z,2316.00
2019-06-01T04:25:25.138Z,2348.00
2019-06-01T04:26:25.168Z,2380.00
2019-06-01T04:27:25.202Z,2416.00
2019-06-01T04:28:25.232Z,2448.00
2019-06-01T04:29:25.265Z,2480.00
2019-06-01T04:30:25.295Z,2512.00
2019-06-01T04:31:25.327Z,2544.00
2019-06-01T04:32:25.359Z,2576.00
2019-06-01T04:33:25.395Z,2604.00
2019-06-01T04:34:25.444Z,2636.00
2019-06-01T04:35:25.453Z,2660.00
2019-06-01T04:36:25.485Z,2692.00
2019-06-01T04:37:25.521Z,2720.00
2019-06-01T04:38:25.550Z,2748.00
2019-06-01T04:39:25.583Z,2780.00
2019-06-01T04:40:28.919Z,2808.00
2019-06-01T04:41:25.645Z,2832.00
2019-06-01T04:42:25.680Z,2852.00
2019-06-01T04:43:25.710Z,2876.00
2019-06-01T04:44:25.738Z,2900.00
2019-06-01T04:45:25.771Z,2924.00
2019-06-01T04:46:25.810Z,2940.00
2019-06-01T04:47:25.839Z,2952.00
2019-06-01T04:48:25.866Z,2976.00
2019-06-01T04:49:25.899Z,2980.00
2019-06-01T04:50:25.930Z,2948.00
2019-06-01T04:51:25.962Z,2904.00
2019-06-01T04:52:25.994Z,2884.00
2019-06-01T04:53:26.026Z,2896.00
2019-06-01T04:54:26.057Z,2904.00
2019-06-01T04:55:26.090Z,2928.00
2019-06-01T04:56:26.123Z,2908.00
2019-06-01T04:57:26.153Z,2972.00
2019-06-01T04:58:26.188Z,3032.00
2019-06-01T04:59:26.216Z,3080.00
2019-06-01T05:00:28.077Z,3116.00
2019-06-01T05:01:26.484Z,3132.00
2019-06-01T05:02:26.312Z,3152.00
2019-06-01T05:03:26.349Z,3180.00
2019-06-01T05:04:26.377Z,3232.00
2019-06-01T05:05:26.410Z,3336.00
2019-06-01T05:06:26.441Z,3388.00
2019-06-01T05:07:26.474Z,3412.00
2019-06-01T05:08:26.506Z,3444.00
2019-06-01T05:09:26.540Z,3460.00
2019-06-01T05:10:26.571Z,3480.00
2019-06-01T05:11:26.603Z,3492.00
2019-06-01T05:12:26.661Z,3504.00
2019-06-01T05:13:26.692Z,3524.00
2019-06-01T05:14:26.923Z,3540.00
2019-06-01T05:16:26.789Z,3572.00
2019-06-01T05:18:26.853Z,3604.00
2019-06-01T05:20:26.894Z,3632.00
2019-06-01T05:21:26.926Z,3644.00
2019-06-01T05:22:26.961Z,3660.00
2019-06-01T05:23:26.990Z,3676.00
2019-06-01T05:24:27.049Z,3696.00
2019-06-01T05:25:27.057Z,3712.00
2019-06-01T05:26:27.089Z,3724.00
2019-06-01T05:27:27.143Z,3736.00
2019-06-01T05:28:27.176Z,3752.00
2019-06-01T05:29:27.212Z,3772.00
2019-06-01T05:31:27.473Z,3796.00
2019-06-01T05:33:37.037Z,3828.00
2019-06-01T05:37:27.478Z,3888.00
2019-06-01T05:38:27.501Z,3896.00
2019-06-01T05:40:27.548Z,3932.00
2019-06-01T05:41:27.608Z,3948.00
2019-06-01T05:42:27.632Z,3968.00
2019-06-01T05:43:27.667Z,3980.00
2019-06-01T05:44:27.679Z,3992.00
2019-06-01T05:45:27.716Z,4004.00
2019-06-01T05:47:27.801Z,4024.00
2019-06-01T05:48:30.611Z,4036.00
2019-06-01T05:49:27.845Z,4052.00
2019-06-01T05:50:27.876Z,4064.00
2019-06-01T05:51:27.913Z,4076.00
2019-06-01T05:52:27.948Z,4092.00
2019-06-01T05:53:27.977Z,4104.00
2019-06-01T05:54:28.010Z,4120.00
2019-06-01T05:55:28.046Z,4132.00
2019-06-01T05:56:28.077Z,4144.00
2019-06-01T05:57:28.110Z,4152.00
2019-06-01T05:58:29.409Z,4164.00
2019-06-01T05:59:28.176Z,4180.00
2019-06-01T06:00:28.211Z,4192.00
2019-06-01T06:01:28.245Z,4208.00
2019-06-01T06:02:28.279Z,4220.00
2019-06-01T06:03:39.943Z,4232.00
2019-06-01T06:04:29.761Z,4240.00
2019-06-01T06:05:28.402Z,4256.00
2019-06-01T06:06:29.046Z,4260.00
2019-06-01T06:07:28.445Z,4280.00
2019-06-01T06:08:28.494Z,4296.00
2019-06-01T06:09:28.518Z,4308.00
2019-06-01T06:10:28.569Z,4320.00
2019-06-01T06:11:28.805Z,4328.00
2019-06-01T06:12:28.618Z,4336.00
2019-06-01T06:13:28.649Z,4348.00
2019-06-01T06:14:28.682Z,4356.00
2019-06-01T06:15:28.718Z,4364.00
2019-06-01T06:16:28.751Z,4384.00
2019-06-01T06:17:28.785Z,4400.00
2019-06-01T06:18:28.818Z,4408.00
2019-06-01T06:19:28.851Z,4428.00
2019-06-01T06:20:28.887Z,4448.00
2019-06-01T06:21:28.922Z,4460.00
2019-06-01T06:22:28.959Z,4476.00
2019-06-01T06:23:28.989Z,4488.00
2019-06-01T06:24:29.027Z,4508.00
2019-06-01T06:25:31.051Z,4520.00
2019-06-01T06:26:29.095Z,4524.00
2019-06-01T06:27:29.126Z,4540.00
2019-06-01T06:28:29.166Z,4544.00
2019-06-01T06:29:29.194Z,4556.00
2019-06-01T06:30:29.232Z,4568.00
2019-06-01T06:31:29.268Z,4580.00
2019-06-01T06:32:29.302Z,4596.00
2019-06-01T06:33:29.333Z,4604.00
2019-06-01T06:34:29.366Z,4632.00
2019-06-01T06:35:29.400Z,4648.00
2019-06-01T06:37:29.476Z,4688.00
2019-06-01T06:38:29.504Z,4696.00
2019-06-01T06:39:29.539Z,4700.00
2019-06-01T06:40:29.573Z,4700.00
2019-06-01T06:41:29.610Z,4712.00
2019-06-01T06:42:29.642Z,4736.00
2019-06-01T06:43:33.044Z,4756.00
2019-06-01T06:44:29.712Z,4752.00
2019-06-01T06:45:29.748Z,4772.00
2019-06-01T06:46:29.782Z,4776.00
2019-06-01T06:47:29.818Z,4808.00
2019-06-01T06:48:29.861Z,4844.00
2019-06-01T06:49:29.896Z,4872.00
2019-06-01T06:50:29.921Z,4896.00
2019-06-01T06:51:29.956Z,4920.00
2019-06-01T06:52:30.002Z,4824.00
2019-06-01T06:53:34.956Z,4788.00
2019-06-01T06:54:30.064Z,4756.00
2019-06-01T06:55:30.148Z,4980.00
2019-06-01T06:56:30.137Z,5024.00
2019-06-01T06:57:30.176Z,5040.00
2019-06-01T06:58:30.203Z,5060.00
2019-06-01T06:59:30.240Z,5080.00
2019-06-01T07:00:30.377Z,5100.00
2019-06-01T07:01:30.309Z,5124.00
2019-06-01T07:02:30.351Z,5144.00
2019-06-01T07:03:30.389Z,5164.00
2019-06-01T07:04:30.415Z,5192.00
2019-06-01T07:05:31.456Z,5216.00
2019-06-01T07:06:30.487Z,5236.00
2019-06-01T07:07:30.522Z,5260.00
2019-06-01T07:08:30.559Z,5288.00
2019-06-01T07:09:30.607Z,5312.00
2019-06-01T07:10:30.640Z,5340.00
2019-06-01T07:11:31.516Z,5364.00
2019-06-01T07:12:31.563Z,5388.00
2019-06-01T07:13:31.612Z,5416.00
2019-06-01T07:14:31.677Z,5440.00
2019-06-01T07:15:31.767Z,5476.00
2019-06-01T07:16:31.880Z,5504.00
2019-06-01T07:17:31.871Z,5540.00
2019-06-01T07:18:31.908Z,5572.00
2019-06-01T07:19:31.908Z,5604.00
2019-06-01T07:20:31.966Z,5640.00
2019-06-01T07:21:31.975Z,5684.00
2019-06-01T07:22:32.013Z,5720.00
2019-06-01T07:23:32.113Z,5760.00
2019-06-01T07:24:32.092Z,5796.00
2019-06-01T07:25:31.180Z,5836.00
2019-06-01T07:26:32.297Z,5880.00
2019-06-01T07:27:32.347Z,5916.00
2019-06-01T07:28:32.374Z,5960.00
2019-06-01T07:29:32.387Z,6000.00
2019-06-01T07:30:32.538Z,6048.00
2019-06-01T07:31:32.447Z,6088.00
2019-06-01T07:32:32.754Z,6132.00
2019-06-01T07:33:32.651Z,6176.00
2019-06-01T07:34:41.189Z,6220.00
2019-06-01T07:35:32.540Z,6268.00
2019-06-01T07:36:32.766Z,6316.00
2019-06-01T07:37:32.643Z,6364.00
2019-06-01T07:38:33.162Z,6416.00
2019-06-01T07:39:33.363Z,6456.00
2019-06-01T07:40:32.913Z,6504.00
2019-06-01T07:41:32.998Z,6552.00
2019-06-01T07:42:32.989Z,6600.00
2019-06-01T07:43:33.074Z,6652.00
2019-06-01T07:44:33.139Z,6684.00
2019-06-01T07:45:34.929Z,6744.00
2019-06-01T07:46:33.175Z,6796.00
2019-06-01T07:47:33.852Z,6848.00
2019-06-01T07:48:33.315Z,6904.00
2019-06-01T07:49:32.049Z,6952.00
2019-06-01T07:50:32.258Z,7004.00
2019-06-01T07:51:32.214Z,7052.00
2019-06-01T07:52:32.466Z,7104.00
2019-06-01T07:53:32.185Z,7164.00
2019-06-01T07:54:32.718Z,7216.00
2019-06-01T07:55:32.260Z,7264.00
2019-06-01T07:56:32.820Z,7316.00
2019-06-01T07:57:32.332Z,7372.00
2019-06-01T07:58:32.923Z,7412.00
2019-06-01T07:59:32.641Z,7468.00
2019-06-01T08:00:33.192Z,7524.00
2019-06-01T08:01:32.907Z,7584.00
2019-06-01T08:02:33.097Z,7648.00
2019-06-01T08:03:34.824Z,7704.00
2019-06-01T08:04:51.862Z,7752.00
2019-06-01T08:05:32.649Z,7796.00
2019-06-01T08:06:33.704Z,7840.00
2019-06-01T08:10:32.833Z,7924.00
2019-06-01T08:12:32.915Z,8020.00
2019-06-01T08:13:35.615Z,8064.00
2019-06-01T08:14:32.981Z,8136.00
2019-06-01T08:16:33.058Z,8228.00
2019-06-01T08:17:33.097Z,8200.00
2019-06-01T08:19:33.373Z,8548.00
2019-06-01T08:20:33.208Z,8644.00
2019-06-01T08:22:33.283Z,8720.00
2019-06-01T08:23:33.323Z,8564.00
2019-06-01T08:28:33.708Z,9288.00
2019-06-01T08:29:34.356Z,9328.00
2019-06-01T08:32:33.661Z,9504.00
2019-06-01T08:33:35.052Z,9552.00
2019-06-01T08:34:33.935Z,9604.00
2019-06-01T08:35:35.193Z,9672.00
2019-06-01T08:36:34.070Z,9732.00
2019-06-01T08:37:33.850Z,9784.00
2019-06-01T08:38:34.089Z,9868.00
2019-06-01T08:39:34.278Z,9948.00
2019-06-01T08:40:33.966Z,10000.00
2019-06-01T08:41:35.724Z,9992.00
2019-06-01T08:42:34.036Z,9896.00
2019-06-01T08:43:34.077Z,9860.00
2019-06-01T08:44:34.097Z,9860.00
2019-06-01T08:45:37.267Z,9740.00
2019-06-01T08:46:34.195Z,9740.00
2019-06-01T08:47:34.240Z,9784.00
2019-06-01T08:49:34.609Z,9692.00
2019-06-01T08:50:34.323Z,9900.00
2019-06-01T08:51:34.366Z,10128.00
2019-06-01T08:52:34.605Z,10268.00
2019-06-01T08:53:34.439Z,10400.00
2019-06-01T08:54:34.496Z,10484.00
2019-06-01T08:55:34.741Z,10528.00
2019-06-01T08:57:35.226Z,10928.00
2019-06-01T08:58:34.745Z,10996.00
2019-06-01T08:59:34.722Z,11080.00
2019-06-01T09:00:34.815Z,11176.00
2019-06-01T09:01:35.039Z,11236.00
2019-06-01T09:02:35.018Z,11292.00
2019-06-01T09:03:39.232Z,11424.00
2019-06-01T09:04:35.799Z,11512.00
2019-06-01T09:05:35.229Z,11632.00
2019-06-01T09:06:36.489Z,11784.00
2019-06-01T09:08:35.822Z,11884.00
2019-06-01T09:09:35.281Z,12204.00
2019-06-01T09:10:35.620Z,12380.00
2019-06-01T09:13:35.555Z,12448.00
2019-06-01T09:14:35.628Z,12336.00
2019-06-01T09:15:35.724Z,12356.00
2019-06-01T09:16:36.045Z,12264.00
2019-06-01T09:17:35.593Z,12244.00
2019-06-01T09:20:38.828Z,13004.00
2019-06-01T09:21:35.726Z,13028.00
2019-06-01T09:22:35.818Z,13148.00
2019-06-01T09:23:37.044Z,13208.00
2019-06-01T09:24:36.210Z,13208.00
2019-06-01T09:25:35.963Z,13016.00
2019-06-01T09:26:36.087Z,13024.00
2019-06-01T09:27:36.145Z,13232.00
2019-06-01T09:28:36.300Z,13272.00
2019-06-01T09:30:18.399Z,13308.00
2019-06-01T09:31:18.439Z,13388.00
2019-06-01T09:32:18.481Z,13336.00
2019-06-01T09:33:18.576Z,13368.00
2019-06-01T09:34:18.588Z,13400.00
2019-06-01T09:35:18.598Z,13392.00
2019-06-01T09:36:18.638Z,13404.00
2019-06-01T09:37:18.679Z,13460.00
2019-06-01T09:38:18.873Z,13464.00
2019-06-01T09:39:18.757Z,13456.00
2019-06-01T09:40:18.813Z,13420.00
2019-06-01T09:41:18.870Z,13396.00
2019-06-01T09:42:18.884Z,13396.00
2019-06-01T09:43:18.919Z,13396.00
2019-06-01T09:44:18.956Z,13408.00
2019-06-01T09:45:19.002Z,13384.00
2019-06-01T09:46:19.037Z,13344.00
2019-06-01T09:47:19.078Z,13324.00
2019-06-01T09:48:19.123Z,13296.00
2019-06-01T09:49:19.162Z,13308.00
2019-06-01T09:50:19.197Z,13276.00
2019-06-01T09:51:19.239Z,13256.00
2019-06-01T09:52:19.279Z,13180.00
2019-06-01T09:53:19.318Z,13240.00
2019-06-01T09:54:19.387Z,13340.00
2019-06-01T09:55:19.420Z,13388.00
2019-06-01T09:56:19.441Z,13460.00
2019-06-01T09:57:19.480Z,13316.00
2019-06-01T09:58:19.561Z,13304.00
2019-06-01T09:59:19.561Z,13356.00
2019-06-01T10:00:19.601Z,13440.00
2019-06-01T10:01:19.641Z,13404.00
2019-06-01T10:02:19.682Z,13420.00
2019-06-01T10:03:19.724Z,13488.00
2019-06-01T10:04:19.764Z,13480.00
2019-06-01T10:05:19.803Z,13424.00
2019-06-01T10:06:19.842Z,13308.00
2019-06-01T10:07:19.886Z,13116.00
2019-06-01T10:08:19.931Z,13140.00
2019-06-01T10:09:20.002Z,13164.00
2019-06-01T10:10:20.006Z,13332.00
2019-06-01T10:11:20.049Z,13588.00
2019-06-01T10:12:20.293Z,13620.00
2019-06-01T10:13:20.150Z,13680.00
2019-06-01T10:14:20.168Z,13736.00
2019-06-01T10:15:20.208Z,13772.00
2019-06-01T10:16:20.255Z,13708.00
2019-06-01T10:17:20.293Z,13680.00
2019-06-01T10:18:20.352Z,13624.00
2019-06-01T10:19:20.396Z,13528.00
2019-06-01T10:20:20.413Z,13532.00
2019-06-01T10:22:20.493Z,13488.00
2019-06-01T10:23:20.740Z,13500.00
2019-06-01T10:24:20.575Z,13524.00
2019-06-01T10:25:20.637Z,13568.00
2019-06-01T10:26:20.678Z,13584.00
2019-06-01T10:27:20.700Z,13612.00
2019-06-01T10:28:20.762Z,13636.00
2019-06-01T10:29:20.802Z,13752.00
2019-06-01T10:30:20.825Z,13984.00
2019-06-01T10:31:20.862Z,14512.00
2019-06-01T10:32:20.934Z,15928.00
2019-06-01T10:33:20.966Z,31936.00
2019-06-01T10:34:20.981Z,56384.00
2019-06-01T10:35:24.657Z,77088.00
2019-06-01T10:36:21.677Z,98016.00
2019-06-01T10:37:21.108Z,104192.00
2019-06-01T10:38:24.087Z,105952.00
2019-06-01T10:41:18.830Z,91072.00
2019-06-01T10:42:18.921Z,94464.00
2019-06-01T10:43:22.555Z,101120.00
2019-06-01T10:44:18.960Z,107584.00
2019-06-01T10:45:19.814Z,111872.00
2019-06-01T10:46:21.674Z,113216.00
2019-06-01T10:47:19.097Z,111776.00
2019-06-01T10:48:19.147Z,112768.00
2019-06-01T10:49:19.189Z,115712.00
2019-06-01T10:50:19.234Z,115712.00
2019-06-01T10:51:19.889Z,118240.00
2019-06-01T10:52:19.328Z,118496.00
2019-06-01T10:53:19.380Z,117024.00
2019-06-01T10:54:19.426Z,116320.00
2019-06-01T10:55:19.472Z,119072.00
2019-06-01T10:57:19.576Z,117120.00
2019-06-01T10:59:20.919Z,114976.00
2019-06-01T11:00:37.090Z,114432.00
2019-06-01T11:01:19.767Z,115424.00
2019-06-01T11:02:19.814Z,119136.00
2019-06-01T11:03:19.871Z,116864.00
2019-06-01T11:04:19.915Z,111456.00
2019-06-01T11:05:19.972Z,110464.00
2019-06-01T11:06:36.326Z,108960.00
2019-06-01T11:07:20.067Z,109696.00
2019-06-01T11:08:20.117Z,111584.00
2019-06-01T11:09:20.169Z,111456.00
2019-06-01T11:10:20.220Z,106208.00
2019-06-01T11:11:20.575Z,105056.00
2019-06-01T11:12:20.378Z,105792.00
2019-06-01T11:14:20.429Z,107264.00
2019-06-01T11:15:20.500Z,102880.00
2019-06-01T11:16:20.525Z,110880.00
2019-06-01T11:17:20.579Z,111904.00
2019-06-01T11:18:20.630Z,109184.00
2019-06-01T11:19:20.683Z,108128.00
2019-06-01T11:20:20.733Z,103872.00
2019-06-01T11:21:20.784Z,103072.00
2019-06-01T11:22:20.836Z,103328.00
2019-06-01T11:23:21.217Z,106592.00
2019-06-01T11:24:20.940Z,105952.00
2019-06-01T11:25:20.993Z,107936.00
2019-06-01T11:26:23.100Z,112480.00
2019-06-01T11:27:21.095Z,115488.00
2019-06-01T11:28:21.148Z,114816.00
2019-06-01T11:29:21.202Z,110944.00
2019-06-01T11:30:21.253Z,110208.00
2019-06-01T11:31:21.528Z,116640.00
2019-06-01T11:32:21.358Z,115104.00
2019-06-01T11:33:21.420Z,115712.00
2019-06-01T11:34:21.463Z,118784.00
2019-06-01T11:35:21.516Z,119072.00
2019-06-01T11:36:21.568Z,120960.00
2019-06-01T11:37:21.621Z,120544.00
2019-06-01T11:38:21.672Z,122208.00
2019-06-01T11:39:21.725Z,125856.00
2019-06-01T11:40:21.779Z,126016.00
2019-06-01T11:41:21.831Z,125024.00
2019-06-01T11:42:21.883Z,125824.00
2019-06-01T11:43:21.934Z,126464.00
2019-06-01T11:44:21.990Z,127040.00
2019-06-01T11:45:22.040Z,129280.00
2019-06-01T11:46:22.095Z,127872.00
2019-06-01T11:47:22.147Z,124672.00
2019-06-01T11:48:22.198Z,127328.00
2019-06-01T11:49:22.297Z,127904.00
2019-06-01T11:50:22.305Z,120352.00
2019-06-01T11:52:22.434Z,107840.00
2019-06-01T11:54:23.326Z,127808.00
2019-06-01T11:55:22.873Z,130144.00
2019-06-01T12:07:19.354Z,124864.00
2019-06-01T12:08:16.784Z,129952.00
2019-06-01T12:09:17.441Z,130560.00
2019-06-01T12:10:17.496Z,126816.00
2019-06-01T12:11:20.169Z,131680.00
2019-06-01T12:13:19.868Z,132224.00
2019-06-01T12:14:17.724Z,132448.00
2019-06-01T12:15:17.171Z,129568.00
2019-06-01T12:16:17.228Z,126880.00
2019-06-01T12:17:17.253Z,126560.00
2019-06-01T12:18:17.306Z,128992.00
2019-06-01T12:19:17.360Z,123456.00
2019-06-01T12:20:17.421Z,118816.00
2019-06-01T12:21:17.688Z,118016.00
2019-06-01T12:22:17.516Z,124640.00
2019-06-01T12:23:17.593Z,126944.00
2019-06-01T12:24:17.644Z,127360.00
2019-06-01T12:25:17.674Z,127712.00
2019-06-01T12:26:17.728Z,123808.00
2019-06-01T12:27:17.780Z,122400.00
2019-06-01T12:28:17.841Z,121440.00
2019-06-01T12:29:17.937Z,122688.00
2019-06-01T12:30:18.005Z,120224.00
2019-06-01T12:32:18.074Z,121824.00
2019-06-01T12:33:18.097Z,121440.00
2019-06-01T12:34:18.150Z,122464.00
2019-06-01T12:35:18.205Z,124256.00
2019-06-01T12:36:18.257Z,125888.00
2019-06-01T12:37:36.027Z,124096.00
2019-06-01T12:41:54.555Z,122688.00
2019-06-01T12:42:52.096Z,120960.00
2019-06-01T12:43:52.040Z,121888.00
2019-06-01T12:44:52.177Z,122112.00
2019-06-01T12:46:05.435Z,123136.00
2019-06-01T12:46:53.040Z,117696.00
2019-06-01T12:47:58.108Z,118944.00
2019-06-01T12:48:52.607Z,118848.00
2019-06-01T12:49:52.764Z,115968.00
2019-06-01T12:50:52.631Z,119072.00
2019-06-01T12:51:53.056Z,122624.00
2019-06-01T12:52:52.796Z,123520.00
2019-06-01T12:53:52.843Z,122624.00
2019-06-01T12:54:53.141Z,123424.00
2019-06-01T12:56:53.164Z,126144.00
2019-06-01T12:57:52.790Z,125952.00
2019-06-01T13:03:03.797Z,124832.00
2019-06-01T13:03:53.319Z,125824.00
2019-06-01T13:08:53.694Z,125408.00
2019-06-01T13:12:54.001Z,125536.00
2019-06-01T13:13:56.280Z,125088.00
2019-06-01T13:21:03.476Z,124480.00
2019-06-01T13:22:02.897Z,124448.00
2019-06-01T13:41:29.743Z,124096.00
2019-06-01T13:44:29.907Z,125472.00
2019-06-01T13:50:30.253Z,121664.00
2019-06-01T13:51:30.913Z,121312.00
2019-06-01T13:52:30.773Z,120384.00
2019-06-01T13:54:30.475Z,117056.00
2019-06-01T13:56:34.624Z,120224.00
2019-06-01T13:59:31.144Z,120576.00
2019-06-01T14:02:30.879Z,119616.00
2019-06-01T14:03:30.935Z,119840.00
2019-06-01T14:04:30.986Z,117536.00
2019-06-01T14:05:31.042Z,115264.00
2019-06-01T14:06:31.096Z,115008.00
2019-06-01T14:07:31.163Z,117056.00
2019-06-01T14:08:31.201Z,119968.00
2019-06-01T14:09:31.261Z,120160.00
2019-06-01T14:10:31.312Z,116160.00
2019-06-01T14:11:31.365Z,112736.00
2019-06-01T14:12:31.419Z,113056.00
2019-06-01T14:13:31.472Z,113856.00
2019-06-01T14:14:31.534Z,113120.00
2019-06-01T14:15:31.580Z,112032.00
2019-06-01T14:16:31.635Z,112480.00
2019-06-01T14:17:31.696Z,109440.00
2019-06-01T14:18:31.742Z,110208.00
2019-06-01T14:19:31.802Z,111328.00
2019-06-01T14:20:31.851Z,111040.00
2019-06-01T14:21:31.903Z,111232.00
2019-06-01T14:22:31.967Z,108480.00
2019-06-01T14:23:32.012Z,103040.00
2019-06-01T14:24:32.064Z,100864.00
2019-06-01T14:25:32.118Z,102560.00
2019-06-01T14:26:32.175Z,101728.00
2019-06-01T14:27:32.226Z,102816.00
2019-06-01T14:28:32.283Z,105824.00
2019-06-01T14:29:32.331Z,105888.00
2019-06-01T14:30:32.385Z,110368.00
2019-06-01T14:31:32.440Z,112064.00
2019-06-01T14:32:32.491Z,112288.00
2019-06-01T14:33:32.546Z,108544.00
2019-06-01T14:34:32.599Z,106368.00
2019-06-01T14:35:35.739Z,105376.00
2019-06-01T14:36:32.706Z,99584.00
2019-06-01T14:37:32.766Z,92288.00
2019-06-01T14:38:46.626Z,92608.00
2019-06-01T14:39:32.866Z,100512.00
2019-06-01T14:40:32.922Z,101792.00
2019-06-01T14:41:32.973Z,98048.00
2019-06-01T14:42:33.029Z,96576.00
2019-06-01T14:43:33.082Z,93248.00
2019-06-01T14:44:33.134Z,95200.00
2019-06-01T14:45:33.253Z,95456.00
2019-06-01T14:46:33.240Z,94432.00
2019-06-01T14:47:33.293Z,92640.00
2019-06-01T14:48:33.357Z,90144.00
2019-06-01T14:51:37.542Z,92352.00
2019-06-01T14:52:35.320Z,94112.00
2019-06-01T14:54:33.662Z,98048.00
2019-06-01T14:55:33.918Z,97248.00
2019-06-01T14:56:33.767Z,94880.00
2019-06-01T14:57:33.821Z,93056.00
2019-06-01T14:58:33.873Z,93504.00
2019-06-01T14:59:33.929Z,94432.00
2019-06-01T15:00:33.981Z,93664.00
2019-06-01T15:01:34.034Z,90304.00
2019-06-01T15:02:34.092Z,89312.00
2019-06-01T15:03:34.139Z,90880.00
2019-06-01T15:04:34.192Z,91680.00
2019-06-01T15:05:34.246Z,90336.00
2019-06-01T15:06:34.296Z,90912.00
2019-06-01T15:07:34.678Z,92704.00
2019-06-01T15:08:34.406Z,89376.00
2019-06-01T15:09:34.454Z,88416.00
2019-06-01T15:10:34.507Z,86144.00
2019-06-01T15:11:34.560Z,90912.00
2019-06-01T15:12:34.612Z,93184.00
2019-06-01T15:13:34.664Z,94752.00
2019-06-01T15:14:34.718Z,95680.00
2019-06-01T15:15:34.779Z,96288.00
2019-06-01T15:16:34.821Z,97216.00
2019-06-01T15:17:34.880Z,97600.00
2019-06-01T15:18:34.927Z,97632.00